KPVF

Placerville Airport

Placerville, California, USA
METAR KPVF 160115Z AUTO 00000KT 10SM CLR 10/02 A3010 RMK AO1
Observed Flight Rules
Dec-16 @ 01:15 UTC (26 minutes ago) Visual Flight Rules
Visibility Clouds
10 miles
  • Clear skies
Temperatures Readings
Current 10°C / 50°F
Dewpoint 2°C / 36°F
Humidity 58%
Altimeter 30.1" Hg
Pressure 1019 hPa
Elevation 789
METAR KPVF 160115Z AUTO 00000KT 10SM CLR 10/02 A3010 RMK AO1
Observed Flight Rules
Dec-16 @ 01:15 UTC
(26 minutes ago)
VFR
Clouds
  • Clear skies
Temperature Dewpoint
10°C / 50°F 2°C / 36°F
Humidity Altimeter Pressure
58% 30.1" Hg 1019 hPa